首页
METAR-TAF:

METAR-TAF

机场 :

马略卡岛帕尔马机场

帕爾馬, 西班牙

纬度: 39-33N, 经度: 002-44E, 海拔: 4米

当前天气观测

该预报发布于21分钟前的04:00 UTC
风速16节,风向东转东北
温度 18°C
湿度 94%
气压 1012 hPa
能見度: 7000
少量云层高于600英尺
散云层高于1900英尺
少量云层高于3500英尺, 积雨云.
雨, 附近有雷暴

METAR: LEPA 220400Z 07016KT 7000 RA VCTS FEW006 SCT019 FEW035CB 18/17 Q1012 TEMPO SCT035CB

时间: 06:21 (04:21 UTC)

预报

该预报发布于1小时和20分钟前的03:01 UTC
预报有效从22日的 03点(UTC)到 22日的 24点(UTC)
风速12节,风向东北
能见度10公里或以上
散云层高于2000英尺
短暂存在
从 22日的 03点(UTC)到 22日的 10点(UTC)
风速25节,风向东北,有时为35节阵风
能見度: 2000
散云层高于3500英尺, 积雨云.
多云层高于4000英尺
雷暴, 雨
成为
从 22日的 10点(UTC)到 22日的 12点(UTC)
风速10节,风向东南
几率 40% :
短暂存在
从 22日的 12点(UTC)到 22日的 15点(UTC)
散云层高于3500英尺, 积雨云.
短暂存在
从 22日的 18点(UTC)到 22日的 23点(UTC)
风速20节,风向西南,有时为30节阵风
能見度: 2000
散云层高于3500英尺, 积雨云.
多云层高于4000英尺
雷暴, 雨

TAF: LEPA 220301Z 2203/2224 04012KT 9999 SCT020 TX25/2212Z TN14/2206Z TEMPO 2203/2210 05025G35KT 2000 TSRA SCT035CB BKN040 BECMG 2210/2212 14010KT PROB40 TEMPO 2212/2215 SCT035CB TEMPO 2218/2223 22020G30KT 2000 TSRA SCT035CB BKN040

超过4000个机场的气象观测和天气预报(METAR&TAF报告)。

可查询的气象台以黄色和红色小点在地图上表示。

将鼠标移到小点上方,可查看气象台名称。

然后点击查看天气观测和预报。

如需切换地图:点击带黑十字的绿色按钮放大地图;点击带横线的绿色按钮缩小地图;或者点击绿色箭头查看邻近地区的地图。


METAR-TAF: